Time;durP1;ratioP1;P1;durP2;ratioP2;P2;SDS_P1;SDS_P2;PMS_P1;PMS_P2;Temp;Humidity;BMP_temperature;BMP_pressure;BME280_temperature;BME280_humidity;BME280_pressure;Samples;Min_cycle;Max_cycle;Signal;HPM_P1;HPM_P2
2023/08/15 00:01:38;;;;;;;1999.90;999.90;;;16.80;99.90;;;;;;5067607;28;20069;-71
2023/08/15 00:04:04;;;;;;;1999.90;999.90;;;16.70;99.90;;;;;;5087798;28;20420;-70
2023/08/15 00:06:30;;;;;;;1999.90;999.90;;;16.70;99.90;;;;;;5073109;28;20077;-71
2023/08/15 00:08:56;;;;;;;1999.90;999.90;;;16.70;99.90;;;;;;5085884;28;20473;-70
2023/08/15 00:11:22;;;;;;;1999.90;999.90;;;16.60;99.90;;;;;;5086091;28;20602;-70
2023/08/15 00:13:48;;;;;;;1999.90;999.90;;;16.60;99.90;;;;;;5087098;28;20054;-70
2023/08/15 00:16:14;;;;;;;1999.90;999.90;;;16.60;99.90;;;;;;5084232;28;20586;-70
2023/08/15 00:18:39;;;;;;;1999.90;999.90;;;16.60;99.90;;;;;;5068668;28;20516;-70
2023/08/15 00:21:05;;;;;;;1999.90;999.90;;;16.50;99.90;;;;;;5086617;28;20040;-71
2023/08/15 00:23:31;;;;;;;1999.90;999.90;;;16.50;99.90;;;;;;5084741;28;20071;-71
2023/08/15 00:25:56;;;;;;;1999.90;999.90;;;16.50;99.90;;;;;;5098368;28;20067;-70
2023/08/15 00:28:22;;;;;;;1999.90;999.90;;;16.50;99.90;;;;;;5081243;28;20036;-71
2023/08/15 00:30:47;;;;;;;1999.90;999.90;;;16.50;99.90;;;;;;5067786;28;20140;-70
2023/08/15 00:33:13;;;;;;;1999.90;999.90;;;16.50;99.90;;;;;;5085737;28;20483;-70
2023/08/15 00:35:39;;;;;;;1999.90;999.90;;;16.60;99.90;;;;;;5099784;28;20040;-70
2023/08/15 00:38:04;;;;;;;1999.90;999.90;;;16.60;99.90;;;;;;5087333;28;20048;-71
2023/08/15 00:40:30;;;;;;;1999.90;999.90;;;16.60;99.90;;;;;;5069549;28;20403;-71
2023/08/15 00:42:55;;;;;;;1999.90;999.90;;;16.70;99.90;;;;;;5070730;28;20078;-71
2023/08/15 00:45:21;;;;;;;1999.90;999.90;;;16.80;99.90;;;;;;5067006;28;20043;-70
2023/08/15 00:47:47;;;;;;;1999.90;999.90;;;16.80;99.90;;;;;;5073577;28;20055;-71
2023/08/15 00:50:13;;;;;;;1999.90;999.90;;;16.80;99.90;;;;;;5089582;28;20484;-70
2023/08/15 00:52:39;;;;;;;1999.90;999.90;;;16.80;99.90;;;;;;5083572;28;20411;-71
2023/08/15 00:55:07;;;;;;;1999.90;999.90;;;16.80;99.90;;;;;;5087583;28;20424;-70
2023/08/15 00:57:33;;;;;;;1999.90;999.90;;;16.80;99.90;;;;;;5078886;28;20032;-70
2023/08/15 00:59:58;;;;;;;1999.90;999.90;;;16.80;99.90;;;;;;5091448;28;20714;-70
2023/08/15 01:02:24;;;;;;;1999.90;999.90;;;16.80;99.90;;;;;;5086086;28;20052;-70
2023/08/15 01:04:50;;;;;;;1999.90;999.90;;;16.90;99.90;;;;;;5086823;28;20523;-70
2023/08/15 01:07:17;;;;;;;1999.90;999.90;;;16.80;99.90;;;;;;5095344;28;20056;-70
2023/08/15 01:09:44;;;;;;;1999.90;999.90;;;16.80;99.90;;;;;;5090064;28;20043;-70
2023/08/15 01:12:12;;;;;;;1999.90;999.90;;;16.80;99.90;;;;;;5088014;28;20098;-70
2023/08/15 01:14:57;;;;;;;1999.90;999.90;;;16.80;99.90;;;;;;5103469;28;20039;-70
2023/08/15 01:17:42;;;;;;;1999.90;999.90;;;16.80;99.90;;;;;;5097888;28;20040;-71
2023/08/15 01:20:12;;;;;;;1999.90;999.90;;;16.80;99.90;;;;;;5088904;28;20063;-70
2023/08/15 01:22:43;;;;;;;1999.90;999.90;;;16.70;99.90;;;;;;5088022;28;20048;-71
2023/08/15 01:25:09;;;;;;;1999.90;999.90;;;16.70;99.90;;;;;;5071536;28;20079;-71
2023/08/15 01:27:35;;;;;;;1999.90;999.90;;;16.60;99.90;;;;;;5095201;28;20766;-71
2023/08/15 01:30:00;;;;;;;1999.90;999.90;;;16.60;99.90;;;;;;5086654;28;20549;-70
2023/08/15 01:32:34;;;;;;;1999.90;999.90;;;16.60;99.90;;;;;;5096444;28;20027;-71
2023/08/15 01:35:22;;;;;;;1999.90;999.90;;;16.60;99.90;;;;;;5088499;28;20078;-70
2023/08/15 01:37:58;;;;;;;1999.90;999.90;;;16.60;99.90;;;;;;5085546;28;20127;-70
2023/08/15 01:40:26;;;;;;;1999.90;999.90;;;16.60;99.90;;;;;;5088106;28;20066;-70
2023/08/15 01:42:55;;;;;;;1999.90;999.90;;;16.50;99.90;;;;;;5070788;28;20365;-70
2023/08/15 01:45:23;;;;;;;1999.90;999.90;;;16.50;99.90;;;;;;5068404;28;20072;-70
2023/08/15 01:47:51;;;;;;;1999.90;999.90;;;16.40;99.90;;;;;;5080506;28;20052;-71
2023/08/15 01:50:16;;;;;;;1999.90;999.90;;;16.40;99.90;;;;;;5085770;28;20067;-70
2023/08/15 01:52:42;;;;;;;1999.90;999.90;;;16.40;99.90;;;;;;5085173;28;20533;-70
2023/08/15 01:55:08;;;;;;;1999.90;999.90;;;16.40;99.90;;;;;;5082645;28;20036;-70
2023/08/15 01:57:33;;;;;;;1999.90;999.90;;;16.40;99.90;;;;;;5081386;28;20035;-70
2023/08/15 01:59:59;;;;;;;1999.90;999.90;;;16.30;99.90;;;;;;5086284;28;20115;-70
2023/08/15 02:02:24;;;;;;;1999.90;999.90;;;16.30;99.90;;;;;;5072407;28;20048;-70
2023/08/15 02:04:50;;;;;;;1999.90;999.90;;;16.40;99.90;;;;;;5087238;28;20091;-70
2023/08/15 02:07:16;;;;;;;1999.90;999.90;;;16.30;99.90;;;;;;5079823;28;20889;-71
2023/08/15 02:09:41;;;;;;;1999.90;999.90;;;16.40;99.90;;;;;;5087795;28;20055;-71
2023/08/15 02:12:07;;;;;;;1999.90;999.90;;;16.40;99.90;;;;;;5101982;28;20051;-71
2023/08/15 02:14:33;;;;;;;1999.90;999.90;;;16.40;99.90;;;;;;5088982;28;20028;-70
2023/08/15 02:16:58;;;;;;;1999.90;999.90;;;16.40;99.90;;;;;;5087780;28;20040;-70
2023/08/15 02:19:24;;;;;;;1999.90;999.90;;;16.40;99.90;;;;;;5091133;28;20138;-70
2023/08/15 02:21:51;;;;;;;1999.90;999.90;;;16.40;99.90;;;;;;5078926;28;20032;-70
2023/08/15 02:24:16;;;;;;;1999.90;999.90;;;16.40;99.90;;;;;;5070960;28;20106;-71
2023/08/15 02:26:42;;;;;;;1999.90;999.90;;;16.50;99.90;;;;;;5069596;28;20157;-70
2023/08/15 02:29:07;;;;;;;1999.90;999.90;;;16.50;99.90;;;;;;5090256;28;20127;-70
2023/08/15 02:31:33;;;;;;;1999.90;999.90;;;16.50;99.90;;;;;;5091704;28;20041;-70
2023/08/15 02:33:59;;;;;;;1999.90;999.90;;;16.60;99.90;;;;;;5097507;28;20044;-70
2023/08/15 02:36:24;;;;;;;1999.90;999.90;;;16.60;99.90;;;;;;5084758;28;20083;-71
2023/08/15 02:38:50;;;;;;;1999.90;999.90;;;16.60;99.90;;;;;;5070168;28;22287;-70
2023/08/15 02:41:15;;;;;;;1999.90;999.90;;;16.60;99.90;;;;;;5088494;28;20472;-70
2023/08/15 02:43:41;;;;;;;1999.90;999.90;;;16.70;99.90;;;;;;5087041;28;20082;-70
2023/08/15 02:46:07;;;;;;;1999.90;999.90;;;16.70;99.90;;;;;;5081739;28;20756;-71
2023/08/15 02:48:33;;;;;;;1999.90;999.90;;;16.80;99.90;;;;;;5084535;28;20101;-71
2023/08/15 02:50:58;;;;;;;1999.90;999.90;;;16.80;99.90;;;;;;5105800;28;20040;-70
2023/08/15 02:53:24;;;;;;;1999.90;999.90;;;16.90;99.90;;;;;;5088788;28;20044;-71
2023/08/15 02:55:51;;;;;;;1999.90;999.90;;;17.00;99.90;;;;;;5085507;28;20032;-70
2023/08/15 02:58:17;;;;;;;1999.90;999.90;;;17.10;99.90;;;;;;5076666;28;20028;-71
2023/08/15 03:00:43;;;;;;;1999.90;999.90;;;17.10;99.90;;;;;;5065734;28;20063;-71
2023/08/15 03:03:08;;;;;;;1999.90;999.90;;;17.10;99.90;;;;;;5079684;28;20735;-71
2023/08/15 03:05:37;;;;;;;1999.90;999.90;;;17.10;99.90;;;;;;5084682;28;20063;-70
2023/08/15 03:08:03;;;;;;;1999.90;999.90;;;17.10;99.90;;;;;;5086176;28;20075;-70
2023/08/15 03:10:28;;;;;;;1999.90;999.90;;;17.10;99.90;;;;;;5086937;28;20078;-70
2023/08/15 03:12:54;;;;;;;1999.90;999.90;;;17.00;99.90;;;;;;5084746;28;20036;-70
2023/08/15 03:15:20;;;;;;;1999.90;999.90;;;17.00;99.90;;;;;;5067361;28;20060;-70
2023/08/15 03:17:45;;;;;;;1999.90;999.90;;;17.00;99.90;;;;;;5097597;28;20131;-71
2023/08/15 03:20:12;;;;;;;1999.90;999.90;;;17.00;99.90;;;;;;5067785;28;20115;-70
2023/08/15 03:22:37;;;;;;;1999.90;999.90;;;17.00;99.90;;;;;;5081803;28;20506;-71
2023/08/15 03:25:03;;;;;;;1999.90;999.90;;;16.90;99.90;;;;;;5071120;28;20035;-70
2023/08/15 03:27:29;;;;;;;1999.90;999.90;;;16.90;99.90;;;;;;5088014;28;20415;-71
2023/08/15 03:29:54;;;;;;;1999.90;999.90;;;16.90;99.90;;;;;;5099554;28;20035;-71
2023/08/15 03:32:20;;;;;;;1999.90;999.90;;;17.00;99.90;;;;;;5086365;28;20040;-70
2023/08/15 03:34:46;;;;;;;1999.90;999.90;;;16.90;99.90;;;;;;5086291;28;20047;-71
2023/08/15 03:37:11;;;;;;;1999.90;999.90;;;17.00;99.90;;;;;;5079033;28;20832;-71
2023/08/15 03:39:37;;;;;;;1999.90;999.90;;;17.00;99.90;;;;;;5083744;28;20040;-70
2023/08/15 03:42:03;;;;;;;1999.90;999.90;;;17.00;99.90;;;;;;5087299;28;20043;-71
2023/08/15 03:44:29;;;;;;;1999.90;999.90;;;17.10;99.90;;;;;;5080758;28;20079;-72
2023/08/15 03:46:55;;;;;;;1999.90;999.90;;;17.10;99.90;;;;;;5085595;28;20063;-71
2023/08/15 03:49:20;;;;;;;1999.90;999.90;;;17.10;99.90;;;;;;5096275;28;20048;-70
2023/08/15 03:51:46;;;;;;;1999.90;999.90;;;17.10;99.90;;;;;;5090361;28;20048;-71
2023/08/15 03:54:12;;;;;;;1999.90;999.90;;;17.00;99.90;;;;;;5090599;28;20050;-71
2023/08/15 03:56:37;;;;;;;1999.90;999.90;;;17.00;99.90;;;;;;5069322;28;20040;-71
2023/08/15 03:59:03;;;;;;;1999.90;999.90;;;17.00;99.90;;;;;;5087230;28;20110;-71
2023/08/15 04:01:28;;;;;;;1999.90;999.90;;;17.00;99.90;;;;;;5085873;28;20066;-71
2023/08/15 04:03:55;;;;;;;1999.90;999.90;;;16.90;99.90;;;;;;5094190;28;20127;-70
2023/08/15 04:06:21;;;;;;;1999.90;999.90;;;17.00;99.90;;;;;;5086063;28;20484;-71
2023/08/15 04:08:47;;;;;;;1999.90;999.90;;;16.90;99.90;;;;;;5078362;28;20112;-71
2023/08/15 04:11:12;;;;;;;1999.90;999.90;;;16.90;99.90;;;;;;5060944;28;20758;-71
2023/08/15 04:13:39;;;;;;;1999.90;999.90;;;16.90;99.90;;;;;;5085997;28;20059;-71
2023/08/15 04:16:04;;;;;;;1999.90;999.90;;;16.90;99.90;;;;;;5082525;28;20051;-71
2023/08/15 04:18:30;;;;;;;1999.90;999.90;;;16.90;99.90;;;;;;5085855;28;20503;-70
2023/08/15 04:20:55;;;;;;;1999.90;999.90;;;16.90;99.90;;;;;;5082310;28;20043;-70
2023/08/15 04:23:21;;;;;;;1999.90;999.90;;;16.90;99.90;;;;;;5087784;28;20756;-71
2023/08/15 04:25:47;;;;;;;1999.90;999.90;;;16.80;99.90;;;;;;5074926;28;20516;-71
2023/08/15 04:28:13;;;;;;;1999.90;999.90;;;16.90;99.90;;;;;;5081270;28;20127;-70
2023/08/15 04:30:38;;;;;;;1999.90;999.90;;;16.80;99.90;;;;;;5085353;28;20044;-70
2023/08/15 04:33:04;;;;;;;1999.90;999.90;;;16.80;99.90;;;;;;5080174;28;20476;-71
2023/08/15 04:35:30;;;;;;;1999.90;999.90;;;16.80;99.90;;;;;;5086201;28;20040;-70
2023/08/15 04:37:56;;;;;;;1999.90;999.90;;;16.80;99.90;;;;;;5079182;28;20036;-71
2023/08/15 04:40:33;;;;;;;1999.90;999.90;;;16.80;99.90;;;;;;5085768;28;20408;-70
2023/08/15 04:42:59;;;;;;;1999.90;999.90;;;16.70;99.90;;;;;;5084279;28;20051;-71
2023/08/15 04:45:24;;;;;;;1999.90;999.90;;;16.70;99.90;;;;;;5064319;28;20773;-70
2023/08/15 04:47:50;;;;;;;1999.90;999.90;;;16.70;99.90;;;;;;5093719;28;20051;-71
2023/08/15 04:50:16;;;;;;;1999.90;999.90;;;16.70;99.90;;;;;;5064146;28;20803;-70
2023/08/15 04:52:41;;;;;;;1999.90;999.90;;;16.70;99.90;;;;;;5098691;28;20044;-71
2023/08/15 04:55:10;;;;;;;1999.90;999.90;;;16.70;99.90;;;;;;5092167;28;20032;-70
2023/08/15 04:57:37;;;;;;;1999.90;999.90;;;16.70;99.90;;;;;;5083488;28;20500;-70
2023/08/15 05:00:08;;;;;;;1999.90;999.90;;;16.70;99.90;;;;;;5083762;28;20114;-70
2023/08/15 05:02:36;;;;;;;1999.90;999.90;;;16.70;99.90;;;;;;5083699;28;20051;-71
2023/08/15 05:05:09;;;;;;;1999.90;999.90;;;16.80;99.90;;;;;;5075208;28;20052;-70
2023/08/15 05:07:35;;;;;;;1999.90;999.90;;;16.80;99.90;;;;;;5086250;28;20096;-71
2023/08/15 05:10:00;;;;;;;1999.90;999.90;;;16.90;99.90;;;;;;5081575;28;20048;-71
2023/08/15 05:12:26;;;;;;;1999.90;999.90;;;16.80;99.90;;;;;;5088163;28;20047;-71
2023/08/15 05:14:52;;;;;;;1999.90;999.90;;;16.80;99.90;;;;;;5081908;28;20061;-71
2023/08/15 05:17:17;;;;;;;1999.90;999.90;;;16.80;99.90;;;;;;5085796;28;20035;-73
2023/08/15 05:19:43;;;;;;;1999.90;999.90;;;16.80;99.90;;;;;;5083260;28;20044;-71
2023/08/15 05:22:09;;;;;;;1999.90;999.90;;;16.80;99.90;;;;;;5077932;28;20454;-71
2023/08/15 05:24:34;;;;;;;1999.90;999.90;;;16.80;99.90;;;;;;5084347;28;20111;-71
2023/08/15 05:27:00;;;;;;;1999.90;999.90;;;16.90;99.90;;;;;;5085768;28;20074;-70
2023/08/15 05:29:26;;;;;;;1999.90;999.90;;;16.90;99.90;;;;;;5070641;28;20467;-71
2023/08/15 05:31:52;;;;;;;1999.90;999.90;;;17.00;99.90;;;;;;5078526;28;20089;-70
2023/08/15 05:34:17;;;;;;;1999.90;999.90;;;17.10;99.90;;;;;;5088807;28;20046;-70
2023/08/15 05:36:43;;;;;;;1999.90;999.90;;;17.10;99.90;;;;;;5101139;28;20078;-70
2023/08/15 05:39:08;;;;;;;1999.90;999.90;;;17.20;99.90;;;;;;5073366;28;20395;-71
2023/08/15 05:41:34;;;;;;;1999.90;999.90;;;17.30;99.90;;;;;;5105933;28;20093;-70
2023/08/15 05:44:00;;;;;;;1999.90;999.90;;;17.30;99.90;;;;;;5089629;28;20097;-70
2023/08/15 05:46:25;;;;;;;1999.90;999.90;;;17.30;99.90;;;;;;5102942;28;20075;-70
2023/08/15 05:48:51;;;;;;;1999.90;999.90;;;17.30;99.90;;;;;;5105360;28;20064;-70
2023/08/15 05:51:17;;;;;;;1999.90;999.90;;;17.40;99.90;;;;;;5085088;28;20542;-70
2023/08/15 05:53:42;;;;;;;1999.90;999.90;;;17.40;99.90;;;;;;5080487;28;20123;-71
2023/08/15 05:56:08;;;;;;;1999.90;999.90;;;17.40;99.90;;;;;;5091055;28;20833;-70
2023/08/15 05:58:33;;;;;;;1999.90;999.90;;;17.40;99.90;;;;;;5084790;28;20120;-70
2023/08/15 06:00:59;;;;;;;1999.90;999.90;;;17.40;99.90;;;;;;5088401;28;20078;-70
2023/08/15 06:03:25;;;;;;;1999.90;999.90;;;17.30;99.90;;;;;;5091397;28;20066;-70
2023/08/15 06:05:50;;;;;;;1999.90;999.90;;;17.30;99.90;;;;;;5079892;28;20084;-70
2023/08/15 06:08:16;;;;;;;1999.90;999.90;;;17.30;99.90;;;;;;5076123;28;20048;-71
2023/08/15 06:10:42;;;;;;;1999.90;999.90;;;17.20;99.90;;;;;;5089291;28;20470;-71
2023/08/15 06:13:07;;;;;;;1999.90;999.90;;;17.20;99.90;;;;;;5083274;28;20048;-70
2023/08/15 06:15:33;;;;;;;1999.90;999.90;;;17.30;99.90;;;;;;5087929;28;20040;-70
2023/08/15 06:17:58;;;;;;;1999.90;999.90;;;17.40;99.90;;;;;;5089280;28;20047;-71
2023/08/15 06:20:24;;;;;;;1999.90;999.90;;;17.40;99.90;;;;;;5091121;28;20047;-70
2023/08/15 06:22:49;;;;;;;1999.90;999.90;;;17.60;99.90;;;;;;5066804;28;20079;-70
2023/08/15 06:25:15;;;;;;;1999.90;999.90;;;17.90;99.90;;;;;;5098129;28;20050;-71
2023/08/15 06:27:41;;;;;;;1999.90;999.90;;;18.00;99.90;;;;;;5081817;28;20044;-70
2023/08/15 06:30:07;;;;;;;1999.90;999.90;;;18.20;99.90;;;;;;5091415;28;20067;-72
2023/08/15 06:32:33;;;;;;;1999.90;999.90;;;18.30;99.90;;;;;;5088701;28;20439;-71
2023/08/15 06:35:00;;;;;;;1999.90;999.90;;;18.40;99.90;;;;;;5086507;28;20089;-71
2023/08/15 06:37:26;;;;;;;1999.90;999.90;;;18.40;99.90;;;;;;5058223;28;20040;-71
2023/08/15 06:39:52;;;;;;;1999.90;999.90;;;18.50;99.90;;;;;;5104812;28;20085;-70
2023/08/15 06:42:17;;;;;;;1999.90;999.90;;;18.60;99.90;;;;;;5100212;28;20047;-70
2023/08/15 06:44:43;;;;;;;1999.90;999.90;;;18.60;99.90;;;;;;5081448;28;20557;-70
2023/08/15 06:47:10;;;;;;;1999.90;999.90;;;18.70;99.90;;;;;;5089698;28;20078;-70
2023/08/15 06:49:36;;;;;;;1999.90;999.90;;;18.80;99.90;;;;;;5088377;28;20040;-70
2023/08/15 06:52:03;;;;;;;1999.90;999.90;;;19.00;99.90;;;;;;5094285;28;20035;-71
2023/08/15 06:54:28;;;;;;;1999.90;999.90;;;19.20;99.90;;;;;;5089547;28;20072;-70
2023/08/15 06:56:54;;;;;;;1999.90;999.90;;;19.40;99.90;;;;;;5083022;28;20027;-70
2023/08/15 06:59:23;;;;;;;1999.90;999.90;;;19.80;99.90;;;;;;5071282;28;20044;-70
2023/08/15 07:01:52;;;;;;;1999.90;999.90;;;20.40;99.90;;;;;;5066815;28;20040;-71
2023/08/15 07:04:18;;;;;;;1999.90;999.90;;;21.20;99.90;;;;;;5067059;28;20113;-70
2023/08/15 07:06:44;;;;;;;1999.90;999.90;;;21.50;99.90;;;;;;5077688;28;20040;-70
2023/08/15 07:09:10;;;;;;;1999.90;999.90;;;21.20;99.90;;;;;;5089439;28;20032;-70
2023/08/15 07:11:36;;;;;;;1999.90;999.90;;;20.90;99.90;;;;;;5085611;28;20093;-71
2023/08/15 07:14:01;;;;;;;1999.90;999.90;;;20.70;99.90;;;;;;5070640;28;20036;-70
2023/08/15 07:16:27;;;;;;;1999.90;999.90;;;20.50;99.90;;;;;;5103020;28;20709;-70
2023/08/15 07:18:53;;;;;;;1999.90;999.90;;;20.40;99.90;;;;;;5072829;28;20075;-71
2023/08/15 07:21:18;;;;;;;1999.90;999.90;;;20.40;99.90;;;;;;5089058;28;20044;-70
2023/08/15 07:23:44;;;;;;;1999.90;999.90;;;20.50;99.90;;;;;;5100370;28;20775;-71
2023/08/15 07:26:09;;;;;;;1999.90;999.90;;;20.70;99.90;;;;;;5078696;28;20855;-70
2023/08/15 07:28:36;;;;;;;1999.90;999.90;;;20.90;99.90;;;;;;5079400;28;20119;-71
2023/08/15 07:31:01;;;;;;;1999.90;999.90;;;21.10;99.90;;;;;;5086677;28;20049;-71
2023/08/15 07:33:27;;;;;;;1999.90;999.90;;;21.00;99.90;;;;;;5068679;28;20075;-71
2023/08/15 07:35:52;;;;;;;1999.90;999.90;;;21.00;99.90;;;;;;5079801;28;20376;-71
2023/08/15 07:38:18;;;;;;;1999.90;999.90;;;20.90;99.90;;;;;;5085427;28;20044;-71
2023/08/15 07:40:44;;;;;;;1999.90;999.90;;;20.90;99.90;;;;;;5086500;28;20500;-71
2023/08/15 07:43:09;;;;;;;1999.90;999.90;;;21.00;99.90;;;;;;5103868;28;20054;-70
2023/08/15 07:45:35;;;;;;;1999.90;999.90;;;21.00;99.90;;;;;;5076733;28;20036;-72
2023/08/15 07:48:01;;;;;;;1999.90;999.90;;;20.90;99.90;;;;;;5084358;28;20036;-71
2023/08/15 07:50:28;;;;;;;1999.90;999.90;;;20.80;99.90;;;;;;5088107;28;20168;-70
2023/08/15 07:52:58;;;;;;;1999.90;999.90;;;20.80;99.90;;;;;;5088285;28;20040;-71
2023/08/15 07:55:23;;;;;;;1999.90;999.90;;;20.90;99.90;;;;;;5071662;28;20043;-71
2023/08/15 07:57:49;;;;;;;1999.90;999.90;;;20.90;99.90;;;;;;5103702;28;20040;-71
2023/08/15 08:00:15;;;;;;;1999.90;999.90;;;21.10;99.90;;;;;;5085824;28;20044;-71
2023/08/15 08:02:41;;;;;;;1999.90;999.90;;;21.20;99.90;;;;;;5079098;28;20043;-71
2023/08/15 08:05:09;;;;;;;1999.90;999.90;;;21.30;99.90;;;;;;5088113;28;20091;-71
2023/08/15 08:07:37;;;;;;;1999.90;999.90;;;21.40;99.90;;;;;;5081085;28;20048;-71
2023/08/15 08:10:03;;;;;;;1999.90;999.90;;;21.40;99.90;;;;;;5085835;28;20048;-71
2023/08/15 08:12:30;;;;;;;1999.90;999.90;;;21.50;99.90;;;;;;5077774;28;20064;-70
2023/08/15 08:14:56;;;;;;;1999.90;999.90;;;21.60;99.90;;;;;;5087985;28;21524;-71
2023/08/15 08:17:21;;;;;;;1999.90;999.90;;;21.80;99.90;;;;;;5085120;28;20044;-71
2023/08/15 08:19:47;;;;;;;1999.90;999.90;;;21.80;99.90;;;;;;5087657;28;20038;-71
2023/08/15 08:22:13;;;;;;;1999.90;999.90;;;21.70;99.90;;;;;;5086208;28;20071;-71
2023/08/15 08:24:38;;;;;;;1999.90;999.90;;;21.60;99.90;;;;;;5085481;28;20067;-71
2023/08/15 08:27:04;;;;;;;1999.90;999.90;;;21.50;99.90;;;;;;5078672;28;20420;-71
2023/08/15 08:29:30;;;;;;;1999.90;999.90;;;21.40;99.90;;;;;;5086435;28;20036;-71
2023/08/15 08:31:56;;;;;;;1999.90;999.90;;;21.30;99.90;;;;;;5084001;28;20040;-71
2023/08/15 08:34:21;;;;;;;1999.90;999.90;;;21.30;99.90;;;;;;5085408;28;20119;-71
2023/08/15 08:36:47;;;;;;;1999.90;999.90;;;21.40;99.90;;;;;;5062210;28;20162;-71
2023/08/15 08:39:13;;;;;;;1999.90;999.90;;;21.50;99.90;;;;;;5103644;28;20063;-71
2023/08/15 08:41:39;;;;;;;1999.90;999.90;;;21.70;99.90;;;;;;5086008;28;20067;-71
2023/08/15 08:44:05;;;;;;;1999.90;999.90;;;21.90;99.90;;;;;;5086476;28;20050;-71
2023/08/15 08:46:32;;;;;;;1999.90;999.90;;;22.00;99.90;;;;;;5084600;28;20040;-71
2023/08/15 08:48:58;;;;;;;1999.90;999.90;;;22.10;99.90;;;;;;5086866;28;20067;-71
2023/08/15 08:51:27;;;;;;;1999.90;999.90;;;22.70;99.90;;;;;;5083777;28;20041;-71
2023/08/15 08:53:54;;;;;;;1999.90;999.90;;;23.30;99.90;;;;;;5083407;28;20044;-71
2023/08/15 08:56:25;;;;;;;1999.90;999.90;;;23.80;99.90;;;;;;5079485;28;20169;-71
2023/08/15 08:59:04;;;;;;;1999.90;999.90;;;24.20;99.90;;;;;;5079953;28;20070;-71
2023/08/15 09:01:31;;;;;;;1999.90;999.90;;;24.70;99.90;;;;;;5098783;28;20159;-71
2023/08/15 09:03:57;;;;;;;1999.90;999.90;;;25.10;99.90;;;;;;5087202;28;20056;-71
2023/08/15 09:06:26;;;;;;;1999.90;999.90;;;25.40;99.90;;;;;;5089816;28;20059;-71
2023/08/15 09:08:52;;;;;;;1999.90;999.90;;;25.70;99.90;;;;;;5083229;28;20697;-71
2023/08/15 09:11:17;;;;;;;591.65;337.25;;;25.80;99.90;;;;;;5090847;28;20088;-72
2023/08/15 09:13:47;;;;;;;91.75;87.55;;;25.90;99.90;;;;;;5071184;28;20052;-71
2023/08/15 09:16:12;;;;;;;580.28;326.48;;;26.00;99.90;;;;;;5089267;28;20403;-72
2023/08/15 09:18:38;;;;;;;1999.90;999.90;;;26.10;99.90;;;;;;5090217;28;20047;-72
2023/08/15 09:21:07;;;;;;;224.77;212.45;;;26.10;99.90;;;;;;5107130;28;20111;-72
2023/08/15 09:23:32;;;;;;;83.15;79.22;;;26.20;99.90;;;;;;5087689;28;20622;-71
2023/08/15 09:26:10;;;;;;;175.50;167.38;;;26.30;99.90;;;;;;5083748;28;20040;-71
2023/08/15 09:28:40;;;;;;;159.82;152.02;;;26.40;99.90;;;;;;5086476;28;20044;-71
2023/08/15 09:31:07;;;;;;;115.80;110.35;;;26.30;99.90;;;;;;5086012;28;20045;-71
2023/08/15 09:33:35;;;;;;;189.43;180.73;;;26.20;99.90;;;;;;5069992;28;20072;-72
2023/08/15 09:36:03;;;;;;;96.55;92.00;;;26.20;99.90;;;;;;5088838;28;20048;-71
2023/08/15 09:38:29;;;;;;;126.03;120.18;;;26.30;99.90;;;;;;5087820;28;20040;-72
2023/08/15 09:40:59;;;;;;;141.73;135.05;;;26.50;99.90;;;;;;5083964;28;20393;-71
2023/08/15 09:43:25;;;;;;;152.20;145.13;;;26.60;99.90;;;;;;5082420;28;20122;-71
2023/08/15 09:45:51;;;;;;;219.23;208.85;;;26.70;99.90;;;;;;5083266;28;20111;-71
2023/08/15 09:48:18;;;;;;;328.55;312.20;;;26.40;99.90;;;;;;5088728;28;20552;-72
2023/08/15 09:50:45;;;;;;;337.73;320.67;;;25.90;99.90;;;;;;5089232;28;20474;-71
2023/08/15 09:53:11;;;;;;;406.55;385.88;;;25.70;99.90;;;;;;5088732;28;20123;-71
2023/08/15 09:55:39;;;;;;;425.75;403.85;;;25.50;99.90;;;;;;5086771;28;20040;-72
2023/08/15 09:58:05;;;;;;;422.05;399.83;;;25.50;99.90;;;;;;5085191;28;20051;-72
2023/08/15 10:00:31;;;;;;;464.50;440.58;;;25.70;99.90;;;;;;5082430;28;20039;-72
2023/08/15 10:03:08;;;;;;;444.05;421.92;;;26.00;99.90;;;;;;5093035;28;20047;-72
2023/08/15 10:05:36;;;;;;;453.63;430.27;;;26.10;99.90;;;;;;5092825;28;20095;-71
2023/08/15 10:08:02;;;;;;;449.67;426.70;;;25.90;99.90;;;;;;5080602;28;20081;-72
2023/08/15 10:10:33;;;;;;;413.10;392.27;;;25.70;99.90;;;;;;5071828;28;20043;-71
2023/08/15 10:12:59;;;;;;;422.30;401.25;;;25.40;99.90;;;;;;5089294;28;20052;-71
2023/08/15 10:15:26;;;;;;;334.30;317.33;;;25.00;99.90;;;;;;5072586;28;20055;-72
2023/08/15 10:17:52;;;;;;;414.83;393.85;;;24.70;99.90;;;;;;5086170;28;20051;-71
2023/08/15 10:20:20;;;;;;;281.80;268.17;;;24.60;99.90;;;;;;5087172;28;20087;-71
2023/08/15 10:22:50;;;;;;;360.33;342.73;;;24.60;99.90;;;;;;5083748;28;20044;-72
2023/08/15 10:25:22;;;;;;;285.13;270.83;;;24.60;99.90;;;;;;5082363;28;20388;-72
2023/08/15 10:27:49;;;;;;;257.23;244.70;;;24.80;99.90;;;;;;5104046;28;20446;-72
2023/08/15 10:30:33;;;;;;;158.85;151.27;;;24.90;99.90;;;;;;5083040;28;20051;-71
2023/08/15 10:33:12;;;;;;;247.75;235.90;;;25.10;99.90;;;;;;5069912;28;20057;-71
2023/08/15 10:36:04;;;;;;;152.52;145.55;;;25.20;99.90;;;;;;5067210;28;20043;-71
2023/08/15 10:38:32;;;;;;;162.00;154.38;;;25.20;99.90;;;;;;5086177;28;20504;-72
2023/08/15 10:41:15;;;;;;;307.00;291.35;;;25.20;99.90;;;;;;5083415;28;20131;-72
2023/08/15 10:43:47;;;;;;;295.17;280.33;;;25.20;99.90;;;;;;5090485;28;20043;-72
2023/08/15 10:46:15;;;;;;;71.43;68.07;;;25.30;99.90;;;;;;5073291;28;20035;-71
2023/08/15 10:48:53;;;;;;;229.73;217.57;;;25.20;99.90;;;;;;5080586;28;20165;-71
2023/08/15 10:51:23;;;;;;;71.18;67.75;;;25.00;99.90;;;;;;5087207;28;20051;-71
2023/08/15 10:53:58;;;;;;;179.18;170.88;;;24.90;99.90;;;;;;5071120;28;20823;-71
2023/08/15 10:56:32;;;;;;;87.13;83.07;;;24.70;99.90;;;;;;5068590;28;20736;-71
2023/08/15 10:58:58;;;;;;;86.68;82.68;;;24.40;99.90;;;;;;5085886;28;20032;-71
2023/08/15 11:01:26;;;;;;;76.30;72.90;;;24.30;99.90;;;;;;5080729;28;20079;-71
2023/08/15 11:03:55;;;;;;;95.15;90.43;;;24.30;99.90;;;;;;5078278;28;20799;-71
2023/08/15 11:06:21;;;;;;;73.68;70.20;;;24.30;99.90;;;;;;5082947;28;20404;-71
2023/08/15 11:08:49;;;;;;;127.32;121.45;;;24.30;99.90;;;;;;5086523;28;20036;-71
2023/08/15 11:11:16;;;;;;;77.53;73.97;;;24.30;99.90;;;;;;5084231;28;20079;-71
2023/08/15 11:13:47;;;;;;;197.70;187.13;;;24.30;99.90;;;;;;5083799;28;20095;-72
2023/08/15 11:16:18;;;;;;;167.65;159.23;;;24.20;99.90;;;;;;5084046;28;20104;-72
2023/08/15 11:18:45;;;;;;;109.80;104.93;;;24.20;99.90;;;;;;5079900;28;20036;-71
2023/08/15 11:21:13;;;;;;;78.50;74.93;;;24.30;99.90;;;;;;5076504;28;20072;-71
2023/08/15 11:23:39;;;;;;;101.05;96.60;;;24.40;99.90;;;;;;5084519;28;20052;-71
2023/08/15 11:26:16;;;;;;;191.65;182.85;;;24.50;99.90;;;;;;5086320;28;20043;-72
2023/08/15 11:28:42;;;;;;;88.22;84.32;;;24.80;99.90;;;;;;5081684;28;20040;-71
2023/08/15 11:31:10;;;;;;;85.60;81.63;;;24.90;99.90;;;;;;5100444;28;20092;-71
2023/08/15 11:33:36;;;;;;;71.03;67.88;;;25.20;99.90;;;;;;5080659;28;20044;-71
2023/08/15 11:36:06;;;;;;;108.18;102.90;;;25.40;99.90;;;;;;5105026;28;20097;-71
2023/08/15 11:38:33;;;;;;;97.72;93.22;;;25.30;99.90;;;;;;5090084;28;20128;-71
2023/08/15 11:41:01;;;;;;;110.72;105.63;;;25.20;99.90;;;;;;5078251;28;20511;-71
2023/08/15 11:43:28;;;;;;;139.40;132.98;;;25.00;99.90;;;;;;5084337;28;20055;-71
2023/08/15 11:45:53;;;;;;;136.38;130.05;;;25.00;99.90;;;;;;5086367;28;20039;-72
2023/08/15 11:48:19;;;;;;;149.57;142.40;;;25.00;99.90;;;;;;5087379;28;20576;-71
2023/08/15 11:50:45;;;;;;;114.55;109.55;;;24.80;99.90;;;;;;5079285;28;20508;-72
2023/08/15 11:53:16;;;;;;;88.72;84.65;;;25.00;99.90;;;;;;5087402;28;20040;-71
2023/08/15 11:55:43;;;;;;;90.47;86.45;;;25.30;99.90;;;;;;5070104;28;20044;-71
2023/08/15 11:58:29;;;;;;;161.48;154.05;;;25.60;99.90;;;;;;5086408;28;20146;-71
2023/08/15 12:01:06;;;;;;;58.78;55.83;;;25.80;99.90;;;;;;5082211;28;20123;-72
2023/08/15 12:03:32;;;;;;;100.25;95.75;;;25.80;99.90;;;;;;5088398;28;20755;-71